createdAt,value
2022-10-17T00:01:25.693Z,75.67
2022-10-17T00:03:52.197Z,76.04
2022-10-17T00:06:18.677Z,75.00
2022-10-17T00:08:45.361Z,76.03
2022-10-17T00:11:20.521Z,77.09
2022-10-17T00:13:49.111Z,76.23
2022-10-17T00:16:23.580Z,75.71
2022-10-17T00:18:50.105Z,75.89
2022-10-17T00:21:18.671Z,76.20
2022-10-17T00:23:45.760Z,75.86
2022-10-17T00:26:12.488Z,75.73
2022-10-17T00:28:39.100Z,76.29
2022-10-17T00:31:07.056Z,76.07
2022-10-17T00:33:35.153Z,76.51
2022-10-17T00:36:07.574Z,76.47
2022-10-17T00:38:34.718Z,75.99
2022-10-17T00:41:01.524Z,75.67
2022-10-17T00:43:29.659Z,75.41
2022-10-17T00:45:56.758Z,75.87
2022-10-17T00:48:25.058Z,76.81
2022-10-17T00:50:51.567Z,75.40
2022-10-17T00:53:18.686Z,76.04
2022-10-17T00:55:48.921Z,76.22
2022-10-17T00:58:15.853Z,75.45
2022-10-17T01:00:43.268Z,75.50
2022-10-17T01:03:09.806Z,75.95
2022-10-17T01:05:37.069Z,76.02
2022-10-17T01:08:04.121Z,76.70
2022-10-17T01:10:34.420Z,77.58
2022-10-17T01:13:31.279Z,76.89
2022-10-17T01:16:08.826Z,77.30
2022-10-17T01:19:01.137Z,76.89
2022-10-17T01:21:35.767Z,76.89
2022-10-17T01:24:24.249Z,76.95
2022-10-17T01:27:10.912Z,77.16
2022-10-17T01:30:05.931Z,76.93
2022-10-17T01:32:45.963Z,77.02
2022-10-17T01:35:28.704Z,76.72
2022-10-17T01:38:06.638Z,77.37
2022-10-17T01:40:37.987Z,77.24
2022-10-17T01:43:13.250Z,77.89
2022-10-17T01:45:53.492Z,77.25
2022-10-17T01:48:23.977Z,77.91
2022-10-17T01:51:12.851Z,78.50
2022-10-17T01:53:47.611Z,77.76
2022-10-17T01:56:14.623Z,77.11
2022-10-17T01:58:49.354Z,78.44
2022-10-17T02:01:16.210Z,77.16
2022-10-17T02:03:43.881Z,77.28
2022-10-17T02:06:10.334Z,77.62
2022-10-17T02:08:45.583Z,76.89
2022-10-17T02:11:17.015Z,76.85
2022-10-17T02:13:58.775Z,77.60
2022-10-17T02:16:48.585Z,78.30
2022-10-17T02:19:26.268Z,76.80
2022-10-17T02:22:27.662Z,76.50
2022-10-17T02:25:09.128Z,76.88
2022-10-17T02:27:35.559Z,77.40
2022-10-17T02:30:36.589Z,77.59
2022-10-17T02:33:31.083Z,76.21
2022-10-17T02:36:05.849Z,76.01
2022-10-17T02:38:32.548Z,77.19
2022-10-17T02:40:59.328Z,78.17
2022-10-17T02:43:25.871Z,77.36
2022-10-17T02:45:52.924Z,78.03
2022-10-17T02:48:25.080Z,78.42
2022-10-17T02:51:07.071Z,78.31
2022-10-17T02:53:38.997Z,77.52
2022-10-17T02:56:10.690Z,77.37
2022-10-17T02:58:38.818Z,76.60
2022-10-17T03:01:05.517Z,77.44
2022-10-17T03:03:32.759Z,76.68
2022-10-17T03:05:59.221Z,77.23
2022-10-17T03:08:25.744Z,77.14
2022-10-17T03:10:52.334Z,77.43
2022-10-17T03:13:19.052Z,77.10
2022-10-17T03:15:45.509Z,78.43
2022-10-17T03:18:12.200Z,78.12
2022-10-17T03:20:38.653Z,77.58
2022-10-17T03:23:05.121Z,78.07
2022-10-17T03:25:31.557Z,78.76
2022-10-17T03:28:00.313Z,78.48
2022-10-17T03:30:27.317Z,77.65
2022-10-17T03:32:53.772Z,77.16
2022-10-17T03:35:20.262Z,77.20
2022-10-17T03:37:46.689Z,77.44
2022-10-17T03:40:13.182Z,79.28
2022-10-17T03:42:39.638Z,79.48
2022-10-17T03:45:06.380Z,77.53
2022-10-17T03:47:32.996Z,78.11
2022-10-17T03:49:59.666Z,79.61
2022-10-17T03:52:26.177Z,78.67
2022-10-17T03:54:52.719Z,78.95
2022-10-17T03:57:19.644Z,77.69
2022-10-17T03:59:46.128Z,76.91
2022-10-17T04:02:12.597Z,78.87
2022-10-17T04:04:39.073Z,78.90
2022-10-17T04:07:05.535Z,78.08
2022-10-17T04:09:31.992Z,77.57
2022-10-17T04:11:58.428Z,78.07
2022-10-17T04:14:24.916Z,78.57
2022-10-17T04:16:51.432Z,77.54
2022-10-17T04:19:17.873Z,77.89
2022-10-17T04:21:44.317Z,78.02
2022-10-17T04:24:11.825Z,78.23
2022-10-17T04:26:38.284Z,77.98
2022-10-17T04:29:04.781Z,77.60
2022-10-17T04:31:31.591Z,77.54
2022-10-17T04:33:58.080Z,77.40
2022-10-17T04:36:24.673Z,76.50
2022-10-17T04:38:51.125Z,77.03
2022-10-17T04:41:18.824Z,76.82
2022-10-17T04:43:48.535Z,76.68
2022-10-17T04:46:17.673Z,77.01
2022-10-17T04:48:44.229Z,78.09
2022-10-17T04:51:15.892Z,77.43
2022-10-17T04:53:43.397Z,76.87
2022-10-17T04:56:12.162Z,77.73
2022-10-17T04:58:39.572Z,76.46
2022-10-17T05:01:11.129Z,76.65
2022-10-17T05:03:38.069Z,77.22
2022-10-17T05:06:15.489Z,77.51
2022-10-17T05:08:42.612Z,78.19
2022-10-17T05:11:21.949Z,77.46
2022-10-17T05:13:56.428Z,76.94
2022-10-17T05:16:24.436Z,78.03
2022-10-17T05:18:53.037Z,77.34
2022-10-17T05:21:20.547Z,76.45
2022-10-17T05:23:47.046Z,77.97
2022-10-17T05:26:14.153Z,77.12
2022-10-17T05:28:40.781Z,77.61
2022-10-17T05:31:08.517Z,77.66
2022-10-17T05:33:35.438Z,76.81
2022-10-17T05:36:01.979Z,77.31
2022-10-17T05:38:28.446Z,77.63
2022-10-17T05:40:58.948Z,78.40
2022-10-17T05:43:26.065Z,77.13
2022-10-17T05:45:52.919Z,77.37
2022-10-17T05:48:19.602Z,76.16
2022-10-17T05:50:46.123Z,77.24
2022-10-17T05:53:12.596Z,77.36
2022-10-17T05:55:39.053Z,77.63
2022-10-17T05:58:05.487Z,77.01
2022-10-17T06:00:32.068Z,78.46
2022-10-17T06:02:58.577Z,77.94
2022-10-17T06:05:25.302Z,76.52
2022-10-17T06:07:55.988Z,77.05
2022-10-17T06:10:24.753Z,76.62
2022-10-17T06:12:51.170Z,77.93
2022-10-17T06:15:17.718Z,78.60
2022-10-17T06:17:44.159Z,77.96
2022-10-17T06:20:10.856Z,77.85
2022-10-17T06:22:37.300Z,78.04
2022-10-17T06:25:04.017Z,77.74
2022-10-17T06:27:30.482Z,77.76
2022-10-17T06:29:56.944Z,78.57
2022-10-17T06:32:23.366Z,78.12
2022-10-17T06:34:49.834Z,78.19
2022-10-17T06:37:16.261Z,79.29
2022-10-17T06:39:42.820Z,79.19
2022-10-17T06:42:09.244Z,78.25
2022-10-17T06:44:35.717Z,77.55
2022-10-17T06:47:02.277Z,78.13
2022-10-17T06:49:28.813Z,77.71
2022-10-17T06:51:55.556Z,78.15
2022-10-17T06:54:21.995Z,78.09
2022-10-17T06:56:48.513Z,77.67
2022-10-17T06:59:15.686Z,78.65
2022-10-17T07:01:46.090Z,78.32
2022-10-17T07:04:13.893Z,77.31
2022-10-17T07:06:40.483Z,76.83
2022-10-17T07:09:07.075Z,76.58
2022-10-17T07:11:35.214Z,78.17
2022-10-17T07:14:02.113Z,77.12
2022-10-17T07:16:28.641Z,76.13
2022-10-17T07:18:55.497Z,77.24
2022-10-17T07:21:22.244Z,76.40
2022-10-17T07:23:48.687Z,76.80
2022-10-17T07:26:17.381Z,76.62
2022-10-17T07:28:45.724Z,76.43
2022-10-17T07:31:15.665Z,75.71
2022-10-17T07:33:43.006Z,76.18
2022-10-17T07:36:09.684Z,76.14
2022-10-17T07:38:36.414Z,76.02
2022-10-17T07:41:04.930Z,76.11
2022-10-17T07:43:31.935Z,75.42
2022-10-17T07:45:58.450Z,75.48
2022-10-17T07:48:25.116Z,75.93
2022-10-17T07:50:51.562Z,75.68
2022-10-17T07:53:18.431Z,75.43
2022-10-17T07:55:46.363Z,75.45
2022-10-17T07:58:13.512Z,75.94
2022-10-17T08:00:40.351Z,75.61
2022-10-17T08:03:07.045Z,74.34
2022-10-17T08:05:33.941Z,73.63
2022-10-17T08:08:00.704Z,73.10
2022-10-17T08:10:29.977Z,73.33
2022-10-17T08:12:57.519Z,72.56
2022-10-17T08:15:29.383Z,73.61
2022-10-17T08:17:59.181Z,72.42
2022-10-17T08:20:25.741Z,72.01
2022-10-17T08:22:56.145Z,71.86
2022-10-17T08:25:23.182Z,71.43
2022-10-17T08:27:49.957Z,72.09
2022-10-17T08:30:17.105Z,72.87
2022-10-17T08:32:43.671Z,72.99
2022-10-17T08:35:10.341Z,73.27
2022-10-17T08:37:36.982Z,72.84
2022-10-17T08:40:04.285Z,72.58
2022-10-17T08:43:35.730Z,72.82
2022-10-17T08:46:05.572Z,72.13
2022-10-17T08:48:37.004Z,71.97
2022-10-17T08:51:11.044Z,72.78
2022-10-17T08:53:50.033Z,72.93
2022-10-17T08:56:25.165Z,72.15
2022-10-17T08:59:06.372Z,72.34
2022-10-17T09:01:39.617Z,72.96
2022-10-17T09:04:12.093Z,72.90
2022-10-17T09:06:42.192Z,72.02
2022-10-17T09:09:14.696Z,72.83
2022-10-17T09:11:47.180Z,70.73
2022-10-17T09:14:35.065Z,70.35
2022-10-17T09:17:39.245Z,69.46
2022-10-17T09:20:17.853Z,70.02
2022-10-17T09:22:50.044Z,70.30
2022-10-17T09:25:18.584Z,70.69
2022-10-17T09:28:05.019Z,70.90
2022-10-17T09:30:46.397Z,70.12
2022-10-17T09:33:34.582Z,71.59
2022-10-17T09:36:09.507Z,71.00
2022-10-17T09:39:13.089Z,69.84
2022-10-17T09:41:57.143Z,69.72
2022-10-17T09:44:47.948Z,69.19
2022-10-17T09:47:30.161Z,70.66
2022-10-17T09:49:57.043Z,70.87
2022-10-17T09:52:33.823Z,69.48
2022-10-17T09:55:03.161Z,70.71
2022-10-17T09:58:02.449Z,69.29
2022-10-17T10:00:38.000Z,69.10
2022-10-17T10:03:16.190Z,69.96
2022-10-17T10:05:44.044Z,69.84
2022-10-17T10:08:16.163Z,70.34
2022-10-17T10:10:43.725Z,70.61
2022-10-17T10:13:13.187Z,69.77
2022-10-17T10:15:50.459Z,69.24
2022-10-17T10:18:26.109Z,69.69
2022-10-17T10:21:15.829Z,69.17
2022-10-17T10:23:44.118Z,69.73
2022-10-17T10:26:25.928Z,69.46
2022-10-17T10:28:55.504Z,69.06
2022-10-17T10:31:30.920Z,70.02
2022-10-17T10:33:59.600Z,69.03
2022-10-17T10:36:26.272Z,69.32
2022-10-17T10:38:58.332Z,70.36
2022-10-17T10:41:27.792Z,70.77
2022-10-17T10:43:55.015Z,70.37
2022-10-17T10:46:28.553Z,69.09
2022-10-17T10:48:59.691Z,69.76
2022-10-17T10:51:35.520Z,69.31
2022-10-17T10:54:01.971Z,69.78
2022-10-17T10:56:49.796Z,70.68
2022-10-17T10:59:41.047Z,70.59
2022-10-17T11:02:07.436Z,71.02
2022-10-17T11:04:40.086Z,69.40
2022-10-17T11:07:11.636Z,69.20
2022-10-17T11:10:01.266Z,69.96
2022-10-17T11:12:32.758Z,69.05
2022-10-17T11:15:09.643Z,68.70
2022-10-17T11:17:45.657Z,69.48
2022-10-17T11:20:18.532Z,70.23
2022-10-17T11:22:48.688Z,69.18
2022-10-17T11:25:36.007Z,70.51
2022-10-17T11:28:05.335Z,69.67
2022-10-17T11:31:03.362Z,70.17
2022-10-17T11:34:03.370Z,70.77
2022-10-17T11:36:35.096Z,69.10
2022-10-17T11:39:04.653Z,69.29
2022-10-17T11:41:40.297Z,69.59
2022-10-17T11:44:25.093Z,70.60
2022-10-17T11:46:57.633Z,71.10
2022-10-17T11:49:36.870Z,69.79
2022-10-17T11:52:37.393Z,70.05
2022-10-17T11:55:13.541Z,69.35
2022-10-17T11:58:09.754Z,69.10
2022-10-17T12:00:54.453Z,69.49
2022-10-17T12:03:55.135Z,69.72
2022-10-17T12:06:42.933Z,68.45
2022-10-17T12:09:31.243Z,69.92
2022-10-17T12:11:58.763Z,70.62
2022-10-17T12:14:41.399Z,69.68
2022-10-17T12:17:25.889Z,70.85
2022-10-17T12:19:52.435Z,71.45
2022-10-17T12:22:26.012Z,71.66
2022-10-17T12:24:58.605Z,72.19
2022-10-17T12:27:32.738Z,72.91
2022-10-17T12:30:01.251Z,71.88
2022-10-17T12:32:30.328Z,70.73
2022-10-17T12:35:03.518Z,72.32
2022-10-17T12:37:45.128Z,72.39
2022-10-17T12:40:36.429Z,73.47
2022-10-17T12:43:15.334Z,75.71
2022-10-17T12:45:48.773Z,74.80
2022-10-17T12:48:33.624Z,76.39
2022-10-17T12:53:59.717Z,80.58
2022-10-17T12:56:41.483Z,79.44
2022-10-17T12:59:13.843Z,81.30
2022-10-17T13:01:44.315Z,81.03
2022-10-17T13:04:11.115Z,80.29
2022-10-17T13:06:43.934Z,82.23
2022-10-17T13:09:27.043Z,81.24
2022-10-17T13:11:54.430Z,81.25
2022-10-17T13:14:22.229Z,82.12
2022-10-17T13:16:56.845Z,81.92
2022-10-17T13:19:44.564Z,82.75
2022-10-17T13:22:18.617Z,83.96
2022-10-17T13:24:45.210Z,82.47
2022-10-17T13:27:29.767Z,82.53
2022-10-17T13:29:59.853Z,81.35
2022-10-17T13:32:39.259Z,81.53
2022-10-17T13:35:17.278Z,80.90
2022-10-17T13:37:49.185Z,82.44
2022-10-17T13:40:44.049Z,82.19
2022-10-17T13:43:24.245Z,83.77
2022-10-17T13:46:36.805Z,83.87
2022-10-17T13:49:12.005Z,81.72
2022-10-17T13:51:43.078Z,81.19
2022-10-17T13:54:33.331Z,81.26
2022-10-17T13:57:01.282Z,81.37
2022-10-17T13:59:34.461Z,82.65
2022-10-17T14:02:02.026Z,81.48
2022-10-17T14:04:40.013Z,82.05
2022-10-17T14:07:25.094Z,82.15
2022-10-17T14:09:51.794Z,82.18
2022-10-17T14:12:19.476Z,82.12
2022-10-17T14:15:09.654Z,82.36
2022-10-17T14:17:38.567Z,82.61
2022-10-17T14:20:26.623Z,84.60
2022-10-17T14:23:17.892Z,84.18
2022-10-17T14:25:40.691Z,86.45
2022-10-17T14:28:09.183Z,86.61
2022-10-17T14:30:55.852Z,85.25
2022-10-17T14:33:26.306Z,86.78
2022-10-17T14:35:54.217Z,86.39
2022-10-17T14:38:21.189Z,85.74
2022-10-17T14:41:41.422Z,85.00
2022-10-17T14:43:57.538Z,86.82
2022-10-17T14:46:24.512Z,84.61
2022-10-17T14:48:56.446Z,86.04
2022-10-17T14:51:23.035Z,86.58
2022-10-17T14:54:20.150Z,86.02
2022-10-17T14:56:52.578Z,83.39
2022-10-17T14:59:51.669Z,86.41
2022-10-17T15:02:09.737Z,84.53
2022-10-17T15:04:36.206Z,86.28
2022-10-17T15:07:02.664Z,86.18
2022-10-17T15:09:29.129Z,85.18
2022-10-17T15:11:56.143Z,85.88
2022-10-17T15:14:22.592Z,85.60
2022-10-17T15:16:49.036Z,87.16
2022-10-17T15:19:15.515Z,86.11
2022-10-17T15:21:46.912Z,88.04
2022-10-17T15:24:15.081Z,86.73
2022-10-17T15:26:41.699Z,86.26
2022-10-17T15:29:14.252Z,86.49
2022-10-17T15:31:41.529Z,86.18
2022-10-17T15:34:07.998Z,88.32
2022-10-17T15:36:39.380Z,87.77
2022-10-17T15:39:06.027Z,87.25
2022-10-17T15:41:33.121Z,86.29
2022-10-17T15:44:00.227Z,87.31
2022-10-17T15:46:28.624Z,87.20
2022-10-17T15:48:55.880Z,88.73
2022-10-17T15:51:22.865Z,86.96
2022-10-17T15:53:49.330Z,86.25
2022-10-17T15:56:36.768Z,89.08
2022-10-17T15:59:05.693Z,88.06
2022-10-17T16:01:33.294Z,89.03
2022-10-17T16:04:00.145Z,88.22
2022-10-17T16:06:27.107Z,87.14
2022-10-17T16:08:53.666Z,87.71
2022-10-17T16:11:40.888Z,87.86
2022-10-17T16:14:11.538Z,88.67
2022-10-17T16:16:38.134Z,89.28
2022-10-17T16:19:04.922Z,86.46
2022-10-17T16:21:34.164Z,86.14
2022-10-17T16:24:00.736Z,86.55
2022-10-17T16:26:28.077Z,86.91
2022-10-17T16:28:56.013Z,87.19
2022-10-17T16:31:25.296Z,86.63
2022-10-17T16:33:53.430Z,86.92
2022-10-17T16:36:20.389Z,86.67
2022-10-17T16:38:47.418Z,86.46
2022-10-17T16:41:21.439Z,87.24
2022-10-17T16:43:49.431Z,85.76
2022-10-17T16:46:16.375Z,86.08
2022-10-17T16:48:44.017Z,85.04
2022-10-17T16:51:11.857Z,86.10
2022-10-17T16:53:44.718Z,85.74
2022-10-17T16:56:13.452Z,85.60
2022-10-17T16:58:41.360Z,84.80
2022-10-17T17:01:16.675Z,83.81
2022-10-17T17:03:44.968Z,86.85
2022-10-17T17:06:19.102Z,85.34
2022-10-17T17:08:45.629Z,85.10
2022-10-17T17:11:15.777Z,86.06
2022-10-17T17:13:42.379Z,86.31
2022-10-17T17:16:14.774Z,84.73
2022-10-17T17:18:41.769Z,86.77
2022-10-17T17:21:10.032Z,85.53
2022-10-17T17:23:38.627Z,88.33
2022-10-17T17:26:07.620Z,87.82
2022-10-17T17:28:34.989Z,91.53
2022-10-17T17:31:01.884Z,92.92
2022-10-17T17:33:30.187Z,91.24
2022-10-17T17:36:01.713Z,90.29
2022-10-17T17:38:29.623Z,89.83
2022-10-17T17:40:56.145Z,90.90
2022-10-17T17:43:22.743Z,90.12
2022-10-17T17:45:49.250Z,91.59
2022-10-17T17:48:16.167Z,89.01
2022-10-17T17:50:43.526Z,88.11
2022-10-17T17:53:11.920Z,89.28
2022-10-17T17:55:38.742Z,88.86
2022-10-17T17:58:05.388Z,88.73
2022-10-17T18:00:31.904Z,86.70
2022-10-17T18:02:58.357Z,85.21
2022-10-17T18:05:24.888Z,85.98
2022-10-17T18:07:51.466Z,85.28
2022-10-17T18:10:17.984Z,85.21
2022-10-17T18:12:44.413Z,84.59
2022-10-17T18:15:11.088Z,84.89
2022-10-17T18:17:38.174Z,85.12
2022-10-17T18:20:05.881Z,83.76
2022-10-17T18:22:33.924Z,83.90
2022-10-17T18:25:00.375Z,84.28
2022-10-17T18:27:26.829Z,84.46
2022-10-17T18:29:55.457Z,84.05
2022-10-17T18:32:22.114Z,84.18
2022-10-17T18:34:51.920Z,82.66
2022-10-17T18:37:18.524Z,82.71
2022-10-17T18:39:45.157Z,83.74
2022-10-17T18:42:11.951Z,84.07
2022-10-17T18:44:38.430Z,84.18
2022-10-17T18:47:04.918Z,83.07
2022-10-17T18:49:31.496Z,82.43
2022-10-17T18:51:59.489Z,82.99
2022-10-17T18:54:26.452Z,82.57
2022-10-17T18:56:54.479Z,83.99
2022-10-17T18:59:21.449Z,83.13
2022-10-17T19:01:48.061Z,83.55
2022-10-17T19:04:15.278Z,83.31
2022-10-17T19:06:41.832Z,83.64
2022-10-17T19:09:10.873Z,82.82
2022-10-17T19:11:38.038Z,82.44
2022-10-17T19:14:14.422Z,81.75
2022-10-17T19:16:47.735Z,82.66
2022-10-17T19:19:22.088Z,82.89
2022-10-17T19:21:49.133Z,83.48
2022-10-17T19:24:27.839Z,81.94
2022-10-17T19:26:57.296Z,84.18
2022-10-17T19:29:26.391Z,83.65
2022-10-17T19:34:25.549Z,82.27
2022-10-17T19:36:52.432Z,82.35
2022-10-17T19:39:21.026Z,82.27
2022-10-17T19:41:48.434Z,82.91
2022-10-17T19:44:15.967Z,83.62
2022-10-17T19:46:46.607Z,84.22
2022-10-17T19:49:13.992Z,82.93
2022-10-17T19:51:41.024Z,82.82
2022-10-17T19:54:07.500Z,82.71
2022-10-17T19:56:38.224Z,83.71
2022-10-17T19:59:06.272Z,84.07
2022-10-17T20:01:36.577Z,82.69
2022-10-17T20:04:03.411Z,82.44
2022-10-17T20:06:30.570Z,83.16
2022-10-17T20:08:57.131Z,83.49
2022-10-17T20:11:26.522Z,82.00
2022-10-17T20:13:54.558Z,82.68
2022-10-17T20:16:24.602Z,83.38
2022-10-17T20:18:55.869Z,81.84
2022-10-17T20:21:27.885Z,82.55
2022-10-17T20:23:55.259Z,82.82
2022-10-17T20:26:36.526Z,85.08
2022-10-17T20:29:06.030Z,83.59
2022-10-17T20:31:36.290Z,83.48
2022-10-17T20:34:03.603Z,84.58
2022-10-17T20:36:30.267Z,83.42
2022-10-17T20:38:58.065Z,83.51
2022-10-17T20:41:25.475Z,83.38
2022-10-17T20:43:53.337Z,84.64
2022-10-17T20:46:36.215Z,84.81
2022-10-17T20:49:07.644Z,84.17
2022-10-17T20:51:34.877Z,83.28
2022-10-17T20:54:02.537Z,83.48
2022-10-17T20:56:30.551Z,84.03
2022-10-17T20:58:59.525Z,83.23
2022-10-17T21:01:26.917Z,84.25
2022-10-17T21:03:53.441Z,84.60
2022-10-17T21:06:20.964Z,83.29
2022-10-17T21:08:47.717Z,83.24
2022-10-17T21:11:17.599Z,84.12
2022-10-17T21:13:45.361Z,84.21
2022-10-17T21:16:17.524Z,82.51
2022-10-17T21:18:44.773Z,84.35
2022-10-17T21:21:23.489Z,84.24
2022-10-17T21:23:50.961Z,84.47
2022-10-17T21:26:18.171Z,83.57
2022-10-17T21:28:46.024Z,82.40
2022-10-17T21:31:19.160Z,83.64
2022-10-17T21:33:49.806Z,83.74
2022-10-17T21:36:17.376Z,84.02
2022-10-17T21:38:45.785Z,83.35
2022-10-17T21:41:14.125Z,83.08
2022-10-17T21:43:41.296Z,83.42
2022-10-17T21:46:10.510Z,83.56
2022-10-17T21:48:37.460Z,84.90
2022-10-17T21:51:06.580Z,84.11
2022-10-17T21:53:33.597Z,83.85
2022-10-17T21:56:01.721Z,85.21
2022-10-17T21:58:28.993Z,83.63
2022-10-17T22:01:13.971Z,84.82
2022-10-17T22:03:46.786Z,84.08
2022-10-17T22:06:38.668Z,84.02
2022-10-17T22:09:07.554Z,84.57
2022-10-17T22:11:35.188Z,87.43
2022-10-17T22:14:04.640Z,85.29
2022-10-17T22:16:31.637Z,85.85
2022-10-17T22:19:03.161Z,85.56
2022-10-17T22:21:32.580Z,84.26
2022-10-17T22:24:01.399Z,85.09
2022-10-17T22:26:29.474Z,83.67
2022-10-17T22:28:56.597Z,83.06
2022-10-17T22:31:23.518Z,83.24
2022-10-17T22:33:50.253Z,82.97
2022-10-17T22:36:16.982Z,82.98
2022-10-17T22:38:43.473Z,83.03
2022-10-17T22:41:09.936Z,82.98
2022-10-17T22:43:36.434Z,83.61
2022-10-17T22:46:04.750Z,83.87
2022-10-17T22:48:31.630Z,83.34
2022-10-17T22:50:59.786Z,83.30
2022-10-17T22:53:27.030Z,83.46
2022-10-17T22:55:54.769Z,83.75
2022-10-17T22:58:21.602Z,84.28
2022-10-17T23:00:49.351Z,84.83
2022-10-17T23:03:16.044Z,83.71
2022-10-17T23:05:43.216Z,82.88
2022-10-17T23:08:10.210Z,83.49
2022-10-17T23:10:36.709Z,83.92
2022-10-17T23:13:03.679Z,84.30
2022-10-17T23:15:34.065Z,83.73
2022-10-17T23:18:01.345Z,83.04
2022-10-17T23:20:28.780Z,83.69
2022-10-17T23:22:55.481Z,83.03
2022-10-17T23:25:22.307Z,83.80
2022-10-17T23:27:48.857Z,84.11
2022-10-17T23:30:15.747Z,83.68
2022-10-17T23:32:42.306Z,82.91
2022-10-17T23:35:09.690Z,83.89
2022-10-17T23:37:36.761Z,82.60
2022-10-17T23:40:04.674Z,83.29
2022-10-17T23:42:31.614Z,83.08
2022-10-17T23:44:58.074Z,83.12
2022-10-17T23:47:24.595Z,82.68
2022-10-17T23:49:51.050Z,83.75
2022-10-17T23:52:17.492Z,82.93
2022-10-17T23:54:43.967Z,83.24
2022-10-17T23:57:10.438Z,81.09
2022-10-17T23:59:36.987Z,81.66
